createdAt,value
2022-12-22T00:01:14.023Z,88.60
2022-12-22T00:03:59.002Z,79.60
2022-12-22T00:06:43.716Z,84.10
2022-12-22T00:09:28.228Z,76.40
2022-12-22T00:12:12.854Z,84.10
2022-12-22T00:14:57.807Z,79.30
2022-12-22T00:17:46.775Z,80.60
2022-12-22T00:20:37.088Z,82.20
2022-12-22T00:23:22.291Z,84.40
2022-12-22T00:26:07.680Z,79.40
2022-12-22T00:28:54.232Z,77.00
2022-12-22T00:31:39.569Z,78.70
2022-12-22T00:34:29.330Z,78.60
2022-12-22T00:37:17.356Z,71.40
2022-12-22T00:40:02.882Z,70.60
2022-12-22T00:42:48.439Z,73.30
2022-12-22T00:45:33.399Z,79.40
2022-12-22T00:48:18.818Z,81.20
2022-12-22T00:51:03.956Z,80.20
2022-12-22T00:53:48.484Z,81.50
2022-12-22T00:56:33.685Z,72.90
2022-12-22T00:59:20.475Z,74.80
2022-12-22T01:02:05.492Z,74.60
2022-12-22T01:04:51.033Z,73.40
2022-12-22T01:07:37.589Z,76.70
2022-12-22T01:10:23.058Z,80.10
2022-12-22T01:13:07.457Z,84.50
2022-12-22T01:15:52.245Z,96.30
2022-12-22T01:18:37.102Z,87.00
2022-12-22T01:21:22.251Z,88.30
2022-12-22T01:24:07.476Z,85.50
2022-12-22T01:26:52.165Z,83.30
2022-12-22T01:29:36.901Z,91.30
2022-12-22T01:32:21.770Z,82.00
2022-12-22T01:35:06.398Z,87.10
2022-12-22T01:37:50.917Z,92.50
2022-12-22T01:40:38.270Z,80.40
2022-12-22T01:46:06.482Z,93.30
2022-12-22T01:48:52.439Z,83.10
2022-12-22T01:51:41.900Z,93.70
2022-12-22T01:54:28.297Z,90.70
2022-12-22T01:57:12.902Z,92.40
2022-12-22T01:59:58.109Z,98.60
2022-12-22T02:02:45.510Z,103.80
2022-12-22T02:05:33.662Z,104.10
2022-12-22T02:08:29.048Z,91.30
2022-12-22T02:11:27.302Z,80.30
2022-12-22T02:14:29.605Z,89.60
2022-12-22T02:17:19.492Z,86.40
2022-12-22T02:20:25.632Z,86.40
2022-12-22T02:23:19.390Z,83.50
2022-12-22T02:26:10.244Z,80.10
2022-12-22T02:28:55.518Z,80.30
2022-12-22T02:31:40.674Z,78.70
2022-12-22T02:34:33.906Z,76.40
2022-12-22T02:37:28.331Z,78.90
2022-12-22T02:40:20.244Z,74.90
2022-12-22T02:43:13.522Z,82.00
2022-12-22T02:46:08.507Z,70.10
2022-12-22T02:49:01.208Z,76.80
2022-12-22T02:51:50.262Z,76.50
2022-12-22T02:54:36.673Z,74.40
2022-12-22T02:57:25.174Z,76.20
2022-12-22T03:00:09.863Z,72.60
2022-12-22T03:02:54.955Z,71.70
2022-12-22T03:05:40.271Z,70.20
2022-12-22T03:08:25.392Z,70.90
2022-12-22T03:11:10.325Z,69.80
2022-12-22T03:13:54.959Z,68.90
2022-12-22T03:16:40.604Z,68.60
2022-12-22T03:19:25.504Z,71.80
2022-12-22T03:22:10.306Z,71.80
2022-12-22T03:24:55.475Z,68.50
2022-12-22T03:27:22.608Z,63.90
2022-12-22T03:29:49.631Z,70.60
2022-12-22T03:32:17.320Z,72.60
2022-12-22T03:34:44.343Z,66.70
2022-12-22T03:37:11.249Z,66.90
2022-12-22T03:39:38.361Z,68.90
2022-12-22T03:42:22.978Z,64.80
2022-12-22T03:45:07.877Z,62.20
2022-12-22T03:47:35.239Z,62.40
2022-12-22T03:50:03.955Z,60.20
2022-12-22T03:52:30.978Z,61.40
2022-12-22T03:54:57.861Z,61.70
2022-12-22T03:57:25.271Z,62.30
2022-12-22T03:59:52.297Z,61.40
2022-12-22T04:02:19.506Z,59.60
2022-12-22T04:04:46.800Z,65.30
2022-12-22T04:07:13.946Z,67.10
2022-12-22T04:10:01.596Z,69.80
2022-12-22T04:12:46.237Z,63.20
2022-12-22T04:15:14.193Z,61.00
2022-12-22T04:17:41.103Z,66.60
2022-12-22T04:20:10.157Z,60.30
2022-12-22T04:22:37.448Z,58.20
2022-12-22T04:25:04.876Z,56.50
2022-12-22T04:27:31.905Z,60.40
2022-12-22T04:29:59.370Z,55.70
2022-12-22T04:32:26.344Z,53.50
2022-12-22T04:34:53.254Z,56.60
2022-12-22T04:37:20.244Z,52.70
2022-12-22T04:39:47.436Z,47.80
2022-12-22T04:42:14.560Z,52.50
2022-12-22T04:44:41.570Z,52.40
2022-12-22T04:47:08.621Z,47.70
2022-12-22T04:49:36.041Z,48.10
2022-12-22T04:52:02.973Z,50.90
2022-12-22T04:54:30.111Z,46.90
2022-12-22T04:56:57.039Z,52.20
2022-12-22T04:59:24.592Z,48.90
2022-12-22T05:01:51.807Z,44.10
2022-12-22T05:04:23.708Z,46.20
2022-12-22T05:06:51.271Z,43.50
2022-12-22T05:09:19.788Z,50.90
2022-12-22T05:11:46.755Z,47.70
2022-12-22T05:14:14.035Z,46.80
2022-12-22T05:16:41.606Z,42.40
2022-12-22T05:19:08.760Z,44.70
2022-12-22T05:21:36.034Z,47.90
2022-12-22T05:24:03.007Z,48.20
2022-12-22T05:26:30.443Z,44.00
2022-12-22T05:28:57.829Z,42.60
2022-12-22T05:31:26.582Z,43.90
2022-12-22T05:33:54.110Z,43.20
2022-12-22T05:36:22.046Z,43.50
2022-12-22T05:38:48.984Z,41.70
2022-12-22T05:41:15.997Z,41.40
2022-12-22T05:43:43.040Z,41.70
2022-12-22T05:46:12.472Z,42.40
2022-12-22T05:48:40.404Z,41.00
2022-12-22T05:51:08.785Z,41.10
2022-12-22T05:53:36.083Z,43.10
2022-12-22T05:56:03.058Z,37.30
2022-12-22T05:58:30.127Z,42.10
2022-12-22T06:01:00.491Z,43.40
2022-12-22T06:03:28.114Z,39.00
2022-12-22T06:05:55.908Z,39.00
2022-12-22T06:08:22.968Z,44.30
2022-12-22T06:10:49.930Z,41.60
2022-12-22T06:13:16.979Z,41.30
2022-12-22T06:15:44.201Z,40.20
2022-12-22T06:18:11.231Z,39.60
2022-12-22T06:20:38.239Z,41.90
2022-12-22T06:23:05.546Z,43.60
2022-12-22T06:25:32.455Z,44.10
2022-12-22T06:27:59.705Z,45.90
2022-12-22T06:30:32.940Z,45.70
2022-12-22T06:33:02.646Z,42.70
2022-12-22T06:35:29.836Z,42.50
2022-12-22T06:37:56.844Z,44.10
2022-12-22T06:40:24.638Z,47.10
2022-12-22T06:43:10.942Z,43.20
2022-12-22T06:45:39.224Z,42.80
2022-12-22T06:48:06.813Z,44.50
2022-12-22T06:50:34.213Z,47.40
2022-12-22T06:53:02.024Z,37.90
2022-12-22T06:55:29.137Z,40.70
2022-12-22T06:57:56.109Z,42.70
2022-12-22T07:00:25.061Z,42.80
2022-12-22T07:02:52.350Z,37.80
2022-12-22T07:05:19.965Z,37.20
2022-12-22T07:07:47.219Z,42.10
2022-12-22T07:10:15.258Z,39.60
2022-12-22T07:12:42.338Z,43.20
2022-12-22T07:15:11.468Z,42.50
2022-12-22T07:17:38.736Z,42.50
2022-12-22T07:20:08.519Z,41.10
2022-12-22T07:22:35.811Z,40.40
2022-12-22T07:25:02.735Z,37.80
2022-12-22T07:27:30.229Z,42.60
2022-12-22T07:29:57.869Z,42.40
2022-12-22T07:32:24.814Z,42.10
2022-12-22T07:34:51.859Z,45.50
2022-12-22T07:37:19.053Z,38.80
2022-12-22T07:39:46.119Z,40.50
2022-12-22T07:42:31.367Z,43.60
2022-12-22T07:44:58.768Z,39.00
2022-12-22T07:47:30.043Z,40.70
2022-12-22T07:50:18.029Z,44.50
2022-12-22T07:52:45.055Z,41.20
2022-12-22T07:55:12.901Z,43.40
2022-12-22T07:57:40.969Z,40.60
2022-12-22T08:00:10.995Z,40.40
2022-12-22T08:02:41.004Z,39.50
2022-12-22T08:05:10.193Z,42.00
2022-12-22T08:07:38.717Z,43.00
2022-12-22T08:10:09.087Z,39.80
2022-12-22T08:12:36.406Z,40.50
2022-12-22T08:15:03.452Z,41.60
2022-12-22T08:17:30.800Z,40.50
2022-12-22T08:19:57.974Z,41.30
2022-12-22T08:22:25.676Z,41.20
2022-12-22T08:24:52.780Z,36.50
2022-12-22T08:27:26.338Z,38.70
2022-12-22T08:29:58.212Z,41.70
2022-12-22T08:32:25.782Z,35.00
2022-12-22T08:34:54.177Z,42.30
2022-12-22T08:37:26.415Z,37.80
2022-12-22T08:39:59.022Z,37.50
2022-12-22T08:42:27.516Z,41.20
2022-12-22T08:44:54.941Z,38.10
2022-12-22T08:47:22.519Z,41.60
2022-12-22T08:49:50.150Z,35.90
2022-12-22T08:52:19.276Z,38.60
2022-12-22T08:54:46.875Z,39.80
2022-12-22T08:57:14.042Z,44.00
2022-12-22T08:59:41.087Z,39.10
2022-12-22T09:02:08.526Z,37.60
2022-12-22T09:04:36.832Z,37.80
2022-12-22T09:07:08.110Z,39.00
2022-12-22T09:09:36.588Z,38.60
2022-12-22T09:12:05.659Z,37.70
2022-12-22T09:14:35.423Z,38.60
2022-12-22T09:17:02.620Z,40.20
2022-12-22T09:19:32.948Z,37.20
2022-12-22T09:21:59.942Z,38.00
2022-12-22T09:24:27.431Z,41.50
2022-12-22T09:26:55.318Z,40.50
2022-12-22T09:29:22.977Z,36.10
2022-12-22T09:31:50.429Z,38.30
2022-12-22T09:34:18.910Z,32.90
2022-12-22T09:36:48.664Z,34.70
2022-12-22T09:39:19.930Z,37.80
2022-12-22T09:41:51.967Z,30.20
2022-12-22T09:44:26.986Z,33.10
2022-12-22T09:46:56.917Z,34.60
2022-12-22T09:49:24.789Z,38.40
2022-12-22T09:51:54.510Z,38.90
2022-12-22T09:54:22.418Z,42.30
2022-12-22T09:56:49.533Z,36.00
2022-12-22T09:59:19.054Z,37.40
2022-12-22T10:02:03.946Z,41.50
2022-12-22T10:04:46.089Z,37.40
2022-12-22T10:07:25.627Z,37.90
2022-12-22T10:09:52.966Z,39.60
2022-12-22T10:12:23.051Z,37.30
2022-12-22T10:14:51.620Z,39.60
2022-12-22T10:17:21.718Z,41.40
2022-12-22T10:19:50.560Z,40.00
2022-12-22T10:22:36.051Z,41.00
2022-12-22T10:25:07.246Z,43.20
2022-12-22T10:27:42.916Z,36.10
2022-12-22T10:30:24.724Z,42.00
2022-12-22T10:33:09.639Z,45.50
2022-12-22T10:35:47.198Z,39.80
2022-12-22T10:38:21.591Z,45.10
2022-12-22T10:40:53.075Z,41.80
2022-12-22T10:43:27.887Z,43.80
2022-12-22T10:45:57.484Z,40.50
2022-12-22T10:48:35.259Z,45.60
2022-12-22T10:51:03.400Z,48.60
2022-12-22T10:53:44.973Z,45.50
2022-12-22T10:56:22.932Z,45.20
2022-12-22T10:58:55.640Z,45.90
2022-12-22T11:01:32.341Z,45.90
2022-12-22T11:04:15.932Z,46.70
2022-12-22T11:06:44.349Z,50.30
2022-12-22T11:09:32.469Z,48.60
2022-12-22T11:12:07.917Z,48.10
2022-12-22T11:14:50.641Z,46.50
2022-12-22T11:17:24.266Z,45.80
2022-12-22T11:20:05.002Z,44.00
2022-12-22T11:22:41.194Z,44.30
2022-12-22T11:25:30.262Z,51.70
2022-12-22T11:28:10.296Z,48.00
2022-12-22T11:30:50.172Z,48.80
2022-12-22T11:33:32.851Z,53.80
2022-12-22T11:36:04.968Z,49.30
2022-12-22T11:38:49.992Z,51.30
2022-12-22T11:41:31.904Z,50.90
2022-12-22T11:44:16.578Z,48.60
2022-12-22T11:46:49.513Z,55.20
2022-12-22T11:49:49.562Z,49.30
2022-12-22T11:52:35.981Z,48.50
2022-12-22T11:55:18.540Z,51.50
2022-12-22T11:58:04.563Z,48.70
2022-12-22T12:01:12.671Z,49.00
2022-12-22T12:03:52.289Z,48.30
2022-12-22T12:06:34.480Z,51.70
2022-12-22T12:09:15.306Z,44.50
2022-12-22T12:11:51.568Z,46.00
2022-12-22T12:14:28.007Z,49.00
2022-12-22T12:17:00.612Z,44.70
2022-12-22T12:19:55.639Z,48.30
2022-12-22T12:22:34.714Z,46.60
2022-12-22T12:25:13.245Z,44.90
2022-12-22T12:27:55.340Z,47.50
2022-12-22T12:30:39.852Z,46.20
2022-12-22T12:33:15.763Z,48.40
2022-12-22T12:35:52.671Z,43.50
2022-12-22T12:41:27.123Z,47.40
2022-12-22T12:43:55.671Z,46.70
2022-12-22T12:46:55.238Z,41.90
2022-12-22T12:49:56.747Z,45.90
2022-12-22T12:53:16.723Z,41.60
2022-12-22T12:55:58.350Z,40.00
2022-12-22T12:58:54.728Z,46.20
2022-12-22T13:01:57.159Z,44.90
2022-12-22T13:05:12.331Z,42.70
2022-12-22T13:08:16.039Z,45.80
2022-12-22T13:10:46.979Z,41.10
2022-12-22T13:13:36.353Z,45.90
2022-12-22T13:16:29.164Z,43.30
2022-12-22T13:19:00.193Z,49.10
2022-12-22T13:21:54.871Z,43.30
2022-12-22T13:24:29.997Z,46.40
2022-12-22T13:27:02.719Z,40.70
2022-12-22T13:29:42.256Z,42.30
2022-12-22T13:32:21.618Z,43.90
2022-12-22T13:37:46.795Z,46.30
2022-12-22T13:40:17.943Z,43.40
2022-12-22T13:42:49.180Z,43.80
2022-12-22T13:45:27.571Z,45.70
2022-12-22T13:47:55.703Z,46.10
2022-12-22T13:50:27.739Z,43.90
2022-12-22T13:52:57.361Z,44.50
2022-12-22T13:55:28.979Z,50.70
2022-12-22T13:57:58.882Z,48.60
2022-12-22T14:00:29.818Z,45.60
2022-12-22T14:02:57.172Z,45.70
2022-12-22T14:05:30.955Z,47.20
2022-12-22T14:08:04.063Z,47.30
2022-12-22T14:10:34.602Z,47.30
2022-12-22T14:13:02.647Z,48.20
2022-12-22T14:15:29.811Z,44.80
2022-12-22T14:17:56.948Z,48.80
2022-12-22T14:20:28.726Z,46.90
2022-12-22T14:23:02.363Z,48.20
2022-12-22T14:25:33.127Z,46.50
2022-12-22T14:28:01.200Z,48.60
2022-12-22T14:30:38.028Z,49.90
2022-12-22T14:33:28.626Z,46.30
2022-12-22T14:36:07.703Z,44.60
2022-12-22T14:38:43.494Z,43.60
2022-12-22T14:41:41.034Z,48.30
2022-12-22T14:44:13.337Z,46.70
2022-12-22T14:46:41.137Z,43.60
2022-12-22T14:49:13.615Z,44.30
2022-12-22T14:51:40.800Z,43.90
2022-12-22T14:54:08.345Z,41.20
2022-12-22T14:56:35.616Z,43.90
2022-12-22T14:59:23.171Z,43.60
2022-12-22T15:02:02.131Z,42.20
2022-12-22T15:04:30.921Z,47.00
2022-12-22T15:07:10.180Z,40.80
2022-12-22T15:10:14.433Z,43.50
2022-12-22T15:12:34.002Z,41.50
2022-12-22T15:15:03.417Z,43.50
2022-12-22T15:17:30.974Z,46.30
2022-12-22T15:20:00.436Z,41.30
2022-12-22T15:22:27.710Z,43.60
2022-12-22T15:24:54.717Z,43.00
2022-12-22T15:27:22.267Z,46.70
2022-12-22T15:29:49.938Z,48.40
2022-12-22T15:32:17.252Z,48.10
2022-12-22T15:34:44.817Z,46.50
2022-12-22T15:37:14.753Z,54.10
2022-12-22T15:39:41.868Z,51.40
2022-12-22T15:42:09.206Z,56.20
2022-12-22T15:44:39.015Z,54.20
2022-12-22T15:47:07.467Z,54.10
2022-12-22T15:49:34.663Z,57.60
2022-12-22T15:52:04.346Z,54.00
2022-12-22T15:54:33.666Z,51.20
2022-12-22T15:57:02.551Z,53.80
2022-12-22T15:59:31.229Z,58.80
2022-12-22T16:02:01.889Z,55.50
2022-12-22T16:04:30.393Z,55.40
2022-12-22T16:06:57.995Z,55.20
2022-12-22T16:09:29.062Z,50.50
2022-12-22T16:11:56.311Z,55.30
2022-12-22T16:14:24.280Z,51.60
2022-12-22T16:16:51.601Z,50.20
2022-12-22T16:19:20.412Z,48.00
2022-12-22T16:21:49.089Z,53.40
2022-12-22T16:24:26.840Z,52.10
2022-12-22T16:26:56.889Z,55.40
2022-12-22T16:29:24.262Z,51.80
2022-12-22T16:31:51.432Z,50.80
2022-12-22T16:34:18.697Z,49.60
2022-12-22T16:36:47.466Z,53.50
2022-12-22T16:39:14.609Z,53.90
2022-12-22T16:41:42.163Z,50.60
2022-12-22T16:46:57.448Z,55.30
2022-12-22T16:49:27.113Z,51.30
2022-12-22T16:51:55.996Z,57.40
2022-12-22T16:54:23.325Z,51.60
2022-12-22T16:56:52.100Z,53.10
2022-12-22T16:59:19.233Z,52.10
2022-12-22T17:01:51.003Z,50.20
2022-12-22T17:04:22.663Z,50.00
2022-12-22T17:06:51.904Z,54.50
2022-12-22T17:09:24.224Z,49.50
2022-12-22T17:11:51.499Z,54.00
2022-12-22T17:14:28.517Z,54.10
2022-12-22T17:16:55.720Z,57.90
2022-12-22T17:19:23.019Z,54.10
2022-12-22T17:21:51.026Z,59.70
2022-12-22T17:24:25.950Z,57.40
2022-12-22T17:26:55.829Z,60.10
2022-12-22T17:29:25.785Z,52.80
2022-12-22T17:31:56.812Z,57.40
2022-12-22T17:34:25.327Z,58.80
2022-12-22T17:36:52.610Z,59.10
2022-12-22T17:39:22.925Z,61.60
2022-12-22T17:41:56.425Z,60.60
2022-12-22T17:44:27.170Z,62.60
2022-12-22T17:46:54.700Z,59.90
2022-12-22T17:49:22.583Z,54.80
2022-12-22T17:51:50.195Z,55.00
2022-12-22T17:54:25.260Z,53.00
2022-12-22T17:56:52.884Z,54.50
2022-12-22T17:59:22.193Z,56.80
2022-12-22T18:02:08.928Z,54.10
2022-12-22T18:04:36.448Z,52.20
2022-12-22T18:07:03.526Z,51.10
2022-12-22T18:09:30.540Z,56.00
2022-12-22T18:11:57.975Z,51.70
2022-12-22T18:14:25.577Z,51.50
2022-12-22T18:16:52.799Z,49.40
2022-12-22T18:19:20.058Z,54.80
2022-12-22T18:21:47.200Z,51.00
2022-12-22T18:24:18.453Z,44.40
2022-12-22T18:26:47.102Z,47.60
2022-12-22T18:29:17.693Z,46.80
2022-12-22T18:31:45.022Z,43.90
2022-12-22T18:34:12.525Z,47.30
2022-12-22T18:36:42.595Z,46.70
2022-12-22T18:39:17.637Z,43.90
2022-12-22T18:41:44.890Z,42.10
2022-12-22T18:44:16.404Z,48.90
2022-12-22T18:46:43.625Z,44.40
2022-12-22T18:49:10.768Z,45.40
2022-12-22T18:51:37.876Z,48.30
2022-12-22T18:54:05.309Z,44.30
2022-12-22T18:56:32.475Z,43.30
2022-12-22T18:58:59.713Z,42.80
2022-12-22T19:01:29.582Z,46.40
2022-12-22T19:03:58.960Z,42.90
2022-12-22T19:06:26.531Z,38.90
2022-12-22T19:08:54.473Z,45.40
2022-12-22T19:11:34.873Z,43.50
2022-12-22T19:14:02.305Z,43.00
2022-12-22T19:16:32.389Z,40.10
2022-12-22T19:19:01.782Z,39.50
2022-12-22T19:21:29.088Z,43.30
2022-12-22T19:23:56.395Z,42.70
2022-12-22T19:26:26.914Z,38.70
2022-12-22T19:28:57.649Z,43.90
2022-12-22T19:31:27.788Z,41.50
2022-12-22T19:33:57.112Z,37.60
2022-12-22T19:36:26.917Z,41.60
2022-12-22T19:39:02.590Z,42.30
2022-12-22T19:41:39.125Z,36.70
2022-12-22T19:44:07.200Z,37.80
2022-12-22T19:46:36.781Z,38.20
2022-12-22T19:49:03.939Z,39.10
2022-12-22T19:51:31.735Z,44.40
2022-12-22T19:53:59.279Z,39.90
2022-12-22T19:56:29.957Z,40.70
2022-12-22T19:58:58.599Z,46.20
2022-12-22T20:01:25.871Z,40.00
2022-12-22T20:03:53.377Z,39.10
2022-12-22T20:06:20.455Z,38.10
2022-12-22T20:08:47.716Z,38.40
2022-12-22T20:11:20.220Z,38.70
2022-12-22T20:13:48.966Z,38.30
2022-12-22T20:16:18.269Z,40.10
2022-12-22T20:18:46.673Z,39.60
2022-12-22T20:21:17.096Z,42.50
2022-12-22T20:23:45.935Z,37.50
2022-12-22T20:26:20.558Z,38.10
2022-12-22T20:28:49.830Z,38.70
2022-12-22T20:31:19.156Z,41.60
2022-12-22T20:33:46.992Z,39.10
2022-12-22T20:36:24.134Z,39.10
2022-12-22T20:38:53.476Z,39.00
2022-12-22T20:41:21.849Z,40.10
2022-12-22T20:43:49.525Z,40.10
2022-12-22T20:46:19.593Z,42.40
2022-12-22T20:48:48.927Z,36.90
2022-12-22T20:51:18.271Z,41.50
2022-12-22T20:53:46.200Z,37.30
2022-12-22T20:56:22.132Z,39.60
2022-12-22T20:58:49.634Z,42.60
2022-12-22T21:01:17.249Z,40.10
2022-12-22T21:03:45.122Z,36.10
2022-12-22T21:06:26.515Z,40.70
2022-12-22T21:08:55.018Z,39.10
2022-12-22T21:11:23.026Z,34.20
2022-12-22T21:13:50.577Z,39.90
2022-12-22T21:16:20.360Z,39.50
2022-12-22T21:18:47.690Z,36.40
2022-12-22T21:21:15.187Z,39.40
2022-12-22T21:23:42.646Z,38.00
2022-12-22T21:26:19.837Z,38.30
2022-12-22T21:28:47.705Z,39.70
2022-12-22T21:31:14.959Z,36.60
2022-12-22T21:33:42.256Z,37.30
2022-12-22T21:36:20.765Z,37.00
2022-12-22T21:38:48.647Z,36.10
2022-12-22T21:41:16.463Z,40.00
2022-12-22T21:43:43.819Z,30.40
2022-12-22T21:46:13.983Z,35.80
2022-12-22T21:48:41.280Z,40.00
2022-12-22T21:51:08.519Z,33.30
2022-12-22T21:53:35.589Z,34.00
2022-12-22T21:56:03.145Z,36.80
2022-12-22T21:58:30.203Z,39.10
2022-12-22T22:00:57.246Z,35.40
2022-12-22T22:03:24.508Z,35.50
2022-12-22T22:05:52.170Z,36.90
2022-12-22T22:08:19.694Z,35.20
2022-12-22T22:10:46.839Z,35.40
2022-12-22T22:13:16.974Z,34.10
2022-12-22T22:15:45.066Z,31.90
2022-12-22T22:18:17.667Z,33.70
2022-12-22T22:20:45.142Z,36.00
2022-12-22T22:23:14.741Z,37.00
2022-12-22T22:25:42.026Z,31.60
2022-12-22T22:28:10.686Z,34.90
2022-12-22T22:30:37.855Z,34.30
2022-12-22T22:33:04.852Z,33.20
2022-12-22T22:35:32.019Z,33.30
2022-12-22T22:37:59.299Z,38.30
2022-12-22T22:40:28.283Z,32.00
2022-12-22T22:42:56.909Z,29.00
2022-12-22T22:45:24.462Z,33.30
2022-12-22T22:47:53.728Z,28.80
2022-12-22T22:50:21.549Z,31.90
2022-12-22T22:52:49.459Z,32.10
2022-12-22T22:55:16.664Z,34.00
2022-12-22T22:57:43.871Z,32.50
2022-12-22T23:00:25.179Z,34.70
2022-12-22T23:02:52.451Z,35.20
2022-12-22T23:05:23.121Z,32.90
2022-12-22T23:07:51.190Z,36.40
2022-12-22T23:10:18.748Z,32.80
2022-12-22T23:12:46.000Z,37.30
2022-12-22T23:15:14.024Z,33.80
2022-12-22T23:17:41.228Z,35.70
2022-12-22T23:20:10.922Z,33.90
2022-12-22T23:22:38.491Z,32.10
2022-12-22T23:25:06.305Z,33.30
2022-12-22T23:27:34.636Z,36.90
2022-12-22T23:30:01.996Z,33.40
2022-12-22T23:32:29.011Z,32.90
2022-12-22T23:34:56.296Z,36.40
2022-12-22T23:37:23.344Z,36.50
2022-12-22T23:39:50.355Z,34.30
2022-12-22T23:42:17.268Z,35.00
2022-12-22T23:44:44.279Z,33.30
2022-12-22T23:47:11.292Z,36.40
2022-12-22T23:49:38.800Z,34.20
2022-12-22T23:52:06.269Z,33.10
2022-12-22T23:54:33.400Z,32.30
2022-12-22T23:57:00.561Z,35.00
2022-12-22T23:59:27.693Z,31.30
